site sitenws-alerts: Checking more than four warning/county codes can delay the loading of your pages. You should use a cron job to get the data.

Nearby METAR Weather Reports

 

KETB - West Bend Municipal Airport, West Bend, WI
Updated: 10/17/2019 5:55pm
Overcast
Overcast
 Wind from calm
Wind: Calm
Temperature: 46°F , 8°C
Dew Point: 37°F , 3°C
Humidity: 71%
Barometer: 30.02 inHg , 1016.6 hPa
Clouds: Overcast
Visibility: 10 miles , 16 km
Cloud details: Overcast 3300 ft
2019/10/17 22:55 KETB 172255Z AUTO 00000KT 10SM OVC033 08/03 A3002 RMK AO2
KOSH - Wittman Regional Airport, Oshkosh, WI
Updated: 10/17/2019 5:53pm
Overcast
Overcast
 Wind from SE
Wind: SE 5 mph , 7 km/h
Temperature: 46°F , 8°C
Wind Chill: 44°F , 7°C
Dew Point: 39°F , 4°C
Humidity: 76%
Barometer: 30.01 inHg , 1016.3 hPa
Clouds: Overcast
Visibility: 10 miles , 16 km
Cloud details: Overcast 3500 ft
2019/10/17 22:53 KOSH 172253Z 14004KT 10SM OVC035 08/04 A3001 RMK AO2 SLP168 T00830039
 
KSBM - Sheboygan County Memorial, Sheboygan, WI
Updated: 10/17/2019 5:53pm
Overcast
Overcast
 Wind from calm
Wind: Calm
Temperature: 46°F , 8°C
Dew Point: 37°F , 3°C
Humidity: 71%
Barometer: 30.02 inHg , 1016.6 hPa
Clouds: Overcast
Visibility: 10 miles , 16 km
Cloud details: Overcast 3500 ft
2019/10/17 22:53 KSBM 172253Z AUTO 00000KT 10SM OVC035 08/03 A3002 RMK AO2 SLP170 T00830028
KFLD - FDL County Airport, Fond du Lac, WI
Updated: 10/17/2019 5:53pm
Overcast
Overcast
 Wind from calm
Wind: Calm
Temperature: 48°F , 9°C
Dew Point: 39°F , 4°C
Humidity: 71%
Barometer: 30.02 inHg , 1016.6 hPa
Clouds: Overcast
Visibility: 10 miles , 16 km
Cloud details: Overcast 3700 ft
2019/10/17 22:53 KFLD 172253Z AUTO 00000KT 10SM OVC037 09/04 A3002 RMK AO2 SLP169 T00940039
 
KMKE - General Mitchell Field, Milwaukee, WI
Updated: 10/17/2019 5:52pm
Overcast
Overcast
 Wind from E
Wind: E 5 mph , 7 km/h
Temperature: 48°F , 9°C
Wind Chill: 46°F , 8°C
Dew Point: 39°F , 4°C
Humidity: 71%
Barometer: 30.02 inHg , 1016.6 hPa
Clouds: Overcast
Visibility: 10 miles , 16 km
Cloud details: Overcast 3300 ft
2019/10/17 22:52 KMKE 172252Z 08004KT 10SM OVC033 09/04 A3002 RMK AO2 SLP171 T00890044
KMSN - Truax Field, Madison, WI
Updated: 10/17/2019 5:53pm
Partly cloudy
Partly cloudy
 Wind from calm
Wind: Calm
Temperature: 50°F , 10°C
Dew Point: 36°F , 2°C
Humidity: 58%
Barometer: 30.00 inHg , 1015.9 hPa
Clouds: Partly cloudy
Visibility: 10 miles , 16 km
Cloud details: Partly cloudy 3500 ft
2019/10/17 22:53 KMSN 172253Z 00000KT 10SM SCT035 10/02 A3000 RMK AO2 SLP164 T01000017
 
KGRB - Austin Strable Field, Green Bay, WI
Updated: 10/17/2019 5:53pm
Clear
Clear
 Wind from calm
Wind: Calm
Temperature: 48°F , 9°C
Dew Point: 39°F , 4°C
Humidity: 71%
Barometer: 30.02 inHg , 1016.6 hPa
Clouds: Clear
Visibility: 10 miles , 16 km
2019/10/17 22:53 KGRB 172253Z 00000KT 10SM CLR 09/04 A3002 RMK AO2 SLP169 T00890039
KSUW - Bong Airport, Superior, WI
Updated: 10/17/2019 6:15pm
Clear
Clear
 Wind from ENE
Wind: ENE 8 mph , 13 km/h, Gust: 16 mph , 26 km/h
Temperature: 46°F , 8°C
Wind Chill: 42°F , 6°C
Dew Point: 39°F , 4°C
Humidity: 76%
Barometer: 29.95 inHg , 1014.2 hPa
Clouds: Clear
Visibility: 10 miles , 16 km
2019/10/17 23:15 KSUW 172315Z AUTO 07007G14KT 10SM CLR 08/04 A2995 RMK AO2 T00750041
 
KLSE - La Crosse Municipal Airport, La Crosse, WI
Updated: 10/17/2019 5:53pm
Clear
Clear
 Wind from calm
Wind: Calm
Temperature: 54°F , 12°C
Dew Point: 36°F , 2°C
Humidity: 51%
Barometer: 29.96 inHg , 1014.6 hPa
Clouds: Clear
Visibility: 10 miles , 16 km
2019/10/17 22:53 KLSE 172253Z 00000KT 10SM CLR 12/02 A2996 RMK AO2 SLP147 T01220022
KIMT - Ford Field, Iron Mountain, MI
Updated: 10/17/2019 5:54pm
Clear
Clear
 Wind from NNW
Wind: NNW 3 mph , 6 km/h
Temperature: 45°F , 7°C
Dew Point: 32°F , 0°C
Humidity: 61%
Barometer: 29.99 inHg , 1015.6 hPa
Clouds: Clear
Visibility: 10 miles , 16 km
2019/10/17 22:54 KIMT 172254Z AUTO 33003KT 10SM CLR 07/00 A2999 RMK AO2 SLP167 T00670000
 
KSAW - K.I. Sawyer Field, Marquette, MI
Updated: 10/17/2019 5:45pm
Overcast
Overcast
 Wind from NNE
Wind: NNE 5 mph , 7 km/h
Temperature: 41°F , 5°C
Wind Chill: 38°F , 3°C
Dew Point: 36°F , 2°C
Humidity: 81%
Barometer: 30.00 inHg , 1015.9 hPa
Clouds: Overcast
Visibility: 10 miles , 16 km
Cloud details: Overcast 2700 ft
2019/10/17 22:45 KSAW 172245Z 02004KT 10SM OVC027 05/02 A3000
KIWD - Iron County Airport, Ironwood, MI
Updated: 10/17/2019 5:56pm
Clear
Clear
 Wind from NNE
Wind: NNE 3 mph , 6 km/h
Temperature: 43°F , 6°C
Dew Point: 36°F , 2°C
Humidity: 76%
Barometer: 29.98 inHg , 1015.2 hPa
Clouds: Clear
Visibility: 10 miles , 16 km
2019/10/17 22:56 KIWD 172256Z AUTO 03003KT 10SM CLR 06/02 A2998 RMK AO2 SLP164 T00610017